createdAt,value
2023-05-14T00:00:18.348Z,14.40
2023-05-14T00:01:18.348Z,12.80
2023-05-14T00:02:18.383Z,13.60
2023-05-14T00:03:18.379Z,12.90
2023-05-14T00:04:18.332Z,13.80
2023-05-14T00:05:18.314Z,12.90
2023-05-14T00:06:18.300Z,12.60
2023-05-14T00:07:18.285Z,13.00
2023-05-14T00:08:18.256Z,12.60
2023-05-14T00:09:18.246Z,13.00
2023-05-14T00:10:18.277Z,13.00
2023-05-14T00:11:18.250Z,13.00
2023-05-14T00:12:18.272Z,12.40
2023-05-14T00:13:18.235Z,12.20
2023-05-14T00:14:18.226Z,12.90
2023-05-14T00:15:18.233Z,12.10
2023-05-14T00:16:18.272Z,12.10
2023-05-14T00:17:18.200Z,13.10
2023-05-14T00:18:18.194Z,12.80
2023-05-14T00:19:18.227Z,12.80
2023-05-14T00:20:18.150Z,13.00
2023-05-14T00:21:18.123Z,12.10
2023-05-14T00:22:18.177Z,13.00
2023-05-14T00:23:18.136Z,13.10
2023-05-14T00:24:18.140Z,12.80
2023-05-14T00:25:18.120Z,13.00
2023-05-14T00:26:18.092Z,12.70
2023-05-14T00:27:18.063Z,13.50
2023-05-14T00:28:18.057Z,13.50
2023-05-14T00:29:18.078Z,12.50
2023-05-14T00:30:18.061Z,13.00
2023-05-14T00:31:18.081Z,14.30
2023-05-14T00:32:18.023Z,12.80
2023-05-14T00:33:18.024Z,13.80
2023-05-14T00:34:18.042Z,13.00
2023-05-14T00:35:17.989Z,12.50
2023-05-14T00:36:18.025Z,12.40
2023-05-14T00:37:17.950Z,12.80
2023-05-14T00:38:17.973Z,12.50
2023-05-14T00:39:17.939Z,12.80
2023-05-14T00:40:17.928Z,13.60
2023-05-14T00:41:17.901Z,13.20
2023-05-14T00:42:17.908Z,13.20
2023-05-14T00:43:17.882Z,12.80
2023-05-14T00:44:17.906Z,13.80
2023-05-14T00:45:17.876Z,13.10
2023-05-14T00:46:17.929Z,13.40
2023-05-14T00:47:17.845Z,12.80
2023-05-14T00:48:17.880Z,12.90
2023-05-14T00:49:17.856Z,12.90
2023-05-14T00:50:17.828Z,13.40
2023-05-14T00:51:17.805Z,12.60
2023-05-14T00:52:17.803Z,12.90
2023-05-14T00:53:17.801Z,12.40
2023-05-14T00:54:17.782Z,12.00
2023-05-14T00:55:17.762Z,12.30
2023-05-14T00:56:17.765Z,13.10
2023-05-14T00:57:17.726Z,12.60
2023-05-14T00:58:17.782Z,12.20
2023-05-14T00:59:17.741Z,12.50
2023-05-14T01:00:17.689Z,12.10
2023-05-14T01:01:17.768Z,11.90
2023-05-14T01:02:17.720Z,11.70
2023-05-14T01:03:17.737Z,11.60
2023-05-14T01:04:17.695Z,12.00
2023-05-14T01:05:17.642Z,12.00
2023-05-14T01:06:17.635Z,12.90
2023-05-14T01:07:17.659Z,11.50
2023-05-14T01:08:17.612Z,11.80
2023-05-14T01:09:17.618Z,12.20
2023-05-14T01:10:17.625Z,12.10
2023-05-14T01:11:17.607Z,13.10
2023-05-14T01:12:17.656Z,12.00
2023-05-14T01:13:17.547Z,12.30
2023-05-14T01:14:17.550Z,11.90
2023-05-14T01:15:17.520Z,12.10
2023-05-14T01:16:17.568Z,11.70
2023-05-14T01:17:17.520Z,12.30
2023-05-14T01:18:17.489Z,12.70
2023-05-14T01:19:17.546Z,12.70
2023-05-14T01:20:17.475Z,12.20
2023-05-14T01:21:17.459Z,11.80
2023-05-14T01:22:17.473Z,12.00
2023-05-14T01:23:17.425Z,12.40
2023-05-14T01:24:17.465Z,12.40
2023-05-14T01:25:17.434Z,12.80
2023-05-14T01:26:17.427Z,12.90
2023-05-14T01:27:17.382Z,12.40
2023-05-14T01:28:17.384Z,12.20
2023-05-14T01:29:17.369Z,12.40
2023-05-14T01:30:17.363Z,12.00
2023-05-14T01:31:17.373Z,11.60
2023-05-14T01:32:17.394Z,12.10
2023-05-14T01:33:17.318Z,11.90
2023-05-14T01:34:17.307Z,11.90
2023-05-14T01:35:17.315Z,11.90
2023-05-14T01:36:17.282Z,11.20
2023-05-14T01:37:17.276Z,11.30
2023-05-14T01:38:17.270Z,11.70
2023-05-14T01:39:17.254Z,11.60
2023-05-14T01:40:17.258Z,11.50
2023-05-14T01:41:17.244Z,11.40
2023-05-14T01:42:17.218Z,11.80
2023-05-14T01:43:17.233Z,12.00
2023-05-14T01:44:17.229Z,11.50
2023-05-14T01:45:17.189Z,11.30
2023-05-14T01:46:17.204Z,11.50
2023-05-14T01:47:17.177Z,10.70
2023-05-14T01:48:17.164Z,11.10
2023-05-14T01:49:17.152Z,11.10
2023-05-14T01:50:17.138Z,11.30
2023-05-14T01:51:17.104Z,12.00
2023-05-14T01:52:17.112Z,11.20
2023-05-14T01:53:17.121Z,11.70
2023-05-14T01:54:17.104Z,11.40
2023-05-14T01:55:17.073Z,11.00
2023-05-14T01:56:17.104Z,11.20
2023-05-14T01:57:17.048Z,10.90
2023-05-14T01:58:17.072Z,10.40
2023-05-14T01:59:17.052Z,11.40
2023-05-14T02:00:17.027Z,12.50
2023-05-14T02:01:17.077Z,12.60
2023-05-14T02:02:17.017Z,12.90
2023-05-14T02:03:17.017Z,12.80
2023-05-14T02:04:17.064Z,13.10
2023-05-14T02:05:17.018Z,13.00
2023-05-14T02:06:17.035Z,13.40
2023-05-14T02:07:16.964Z,12.80
2023-05-14T02:08:16.933Z,12.90
2023-05-14T02:09:16.920Z,13.00
2023-05-14T02:10:16.915Z,12.70
2023-05-14T02:11:16.896Z,13.00
2023-05-14T02:12:16.897Z,12.70
2023-05-14T02:13:16.882Z,12.70
2023-05-14T02:14:16.876Z,12.80
2023-05-14T02:15:16.867Z,12.60
2023-05-14T02:16:16.889Z,11.90
2023-05-14T02:17:16.831Z,12.90
2023-05-14T02:18:16.821Z,12.60
2023-05-14T02:19:16.878Z,12.70
2023-05-14T02:20:16.798Z,12.80
2023-05-14T02:21:16.798Z,12.50
2023-05-14T02:22:16.781Z,12.00
2023-05-14T02:23:16.769Z,12.90
2023-05-14T02:24:16.773Z,12.50
2023-05-14T02:25:16.735Z,11.90
2023-05-14T02:26:16.748Z,11.60
2023-05-14T02:27:16.743Z,12.90
2023-05-14T02:28:16.730Z,12.70
2023-05-14T02:29:16.708Z,12.50
2023-05-14T02:30:16.705Z,13.10
2023-05-14T02:31:16.738Z,12.90
2023-05-14T02:32:16.720Z,13.00
2023-05-14T02:33:16.765Z,12.70
2023-05-14T02:34:16.665Z,12.60
2023-05-14T02:35:16.655Z,12.20
2023-05-14T02:36:16.627Z,12.50
2023-05-14T02:37:16.610Z,12.20
2023-05-14T02:38:16.670Z,11.90
2023-05-14T02:39:16.619Z,13.10
2023-05-14T02:40:16.608Z,12.10
2023-05-14T02:41:16.573Z,12.20
2023-05-14T02:42:16.576Z,12.50
2023-05-14T02:43:16.548Z,12.50
2023-05-14T02:44:16.562Z,11.50
2023-05-14T02:45:16.545Z,12.40
2023-05-14T02:46:16.548Z,12.00
2023-05-14T02:47:16.510Z,12.00
2023-05-14T02:48:16.494Z,11.60
2023-05-14T02:49:16.489Z,12.10
2023-05-14T02:50:16.475Z,12.00
2023-05-14T02:51:16.477Z,12.30
2023-05-14T02:52:16.457Z,12.10
2023-05-14T02:53:16.441Z,11.50
2023-05-14T02:54:16.531Z,12.20
2023-05-14T02:55:16.416Z,11.40
2023-05-14T02:56:16.424Z,11.30
2023-05-14T02:57:16.393Z,11.50
2023-05-14T02:58:16.508Z,11.20
2023-05-14T02:59:16.378Z,11.40
2023-05-14T03:00:16.357Z,10.80
2023-05-14T03:01:16.519Z,11.00
2023-05-14T03:02:16.395Z,10.80
2023-05-14T03:03:16.358Z,10.50
2023-05-14T03:04:16.344Z,11.30
2023-05-14T03:05:16.307Z,10.60
2023-05-14T03:06:16.298Z,10.80
2023-05-14T03:07:16.277Z,10.40
2023-05-14T03:08:16.286Z,11.10
2023-05-14T03:09:16.272Z,11.00
2023-05-14T03:10:16.370Z,11.00
2023-05-14T03:11:16.255Z,10.60
2023-05-14T03:12:16.246Z,10.60
2023-05-14T03:13:16.243Z,11.20
2023-05-14T03:14:16.225Z,10.80
2023-05-14T03:15:16.215Z,11.40
2023-05-14T03:16:16.266Z,11.20
2023-05-14T03:17:16.182Z,11.00
2023-05-14T03:18:16.181Z,10.90
2023-05-14T03:19:16.196Z,11.30
2023-05-14T03:20:16.148Z,11.30
2023-05-14T03:21:16.132Z,10.70
2023-05-14T03:22:16.369Z,10.70
2023-05-14T03:23:16.112Z,10.60
2023-05-14T03:24:16.097Z,11.00
2023-05-14T03:25:16.090Z,10.80
2023-05-14T03:26:16.099Z,11.20
2023-05-14T03:27:16.071Z,12.10
2023-05-14T03:28:16.062Z,12.30
2023-05-14T03:29:16.050Z,11.80
2023-05-14T03:30:16.033Z,12.10
2023-05-14T03:31:16.099Z,12.00
2023-05-14T03:32:16.046Z,12.30
2023-05-14T03:33:16.013Z,12.80
2023-05-14T03:34:15.993Z,12.60
2023-05-14T03:35:16.013Z,12.30
2023-05-14T03:36:15.973Z,12.30
2023-05-14T03:37:15.960Z,12.40
2023-05-14T03:38:15.999Z,11.90
2023-05-14T03:39:15.943Z,12.00
2023-05-14T03:40:15.965Z,11.70
2023-05-14T03:41:15.931Z,12.40
2023-05-14T03:42:15.908Z,12.30
2023-05-14T03:43:15.898Z,11.50
2023-05-14T03:44:15.872Z,11.40
2023-05-14T03:45:15.892Z,11.80
2023-05-14T03:46:15.881Z,12.20
2023-05-14T03:47:15.853Z,12.40
2023-05-14T03:48:15.928Z,12.50
2023-05-14T03:49:15.831Z,13.10
2023-05-14T03:50:15.830Z,13.10
2023-05-14T03:51:15.809Z,13.40
2023-05-14T03:52:15.794Z,13.50
2023-05-14T03:53:15.785Z,12.50
2023-05-14T03:54:15.787Z,12.60
2023-05-14T03:55:15.790Z,12.50
2023-05-14T03:56:15.757Z,13.90
2023-05-14T03:57:15.729Z,13.10
2023-05-14T03:58:15.732Z,13.10
2023-05-14T03:59:15.741Z,12.40
2023-05-14T04:00:15.748Z,12.20
2023-05-14T04:01:15.694Z,12.20
2023-05-14T04:02:15.741Z,12.20
2023-05-14T04:03:15.818Z,12.60
2023-05-14T04:04:15.754Z,13.50
2023-05-14T04:05:15.662Z,13.10
2023-05-14T04:06:15.658Z,12.10
2023-05-14T04:07:15.642Z,11.40
2023-05-14T04:08:15.632Z,13.20
2023-05-14T04:09:15.620Z,13.90
2023-05-14T04:10:15.619Z,13.30
2023-05-14T04:11:15.593Z,12.70
2023-05-14T04:12:15.577Z,12.30
2023-05-14T04:13:15.586Z,12.80
2023-05-14T04:14:15.672Z,12.70
2023-05-14T04:15:15.548Z,12.60
2023-05-14T04:16:15.597Z,12.20
2023-05-14T04:17:15.537Z,12.00
2023-05-14T04:18:15.584Z,11.60
2023-05-14T04:19:15.535Z,11.20
2023-05-14T04:20:15.508Z,11.10
2023-05-14T04:21:15.488Z,10.60
2023-05-14T04:22:15.512Z,10.80
2023-05-14T04:23:15.461Z,10.90
2023-05-14T04:24:15.450Z,10.60
2023-05-14T04:25:15.460Z,10.40
2023-05-14T04:26:15.436Z,10.80
2023-05-14T04:27:16.371Z,10.70
2023-05-14T04:28:15.421Z,11.30
2023-05-14T04:29:15.390Z,12.10
2023-05-14T04:30:15.380Z,11.50
2023-05-14T04:31:15.420Z,12.50
2023-05-14T04:32:15.393Z,12.00
2023-05-14T04:33:15.345Z,12.80
2023-05-14T04:34:15.339Z,13.30
2023-05-14T04:35:15.322Z,12.60
2023-05-14T04:36:15.306Z,12.40
2023-05-14T04:37:15.328Z,12.90
2023-05-14T04:38:15.298Z,12.30
2023-05-14T04:39:15.273Z,12.20
2023-05-14T04:40:15.279Z,12.50
2023-05-14T04:41:15.251Z,13.10
2023-05-14T04:42:15.323Z,13.50
2023-05-14T04:43:15.234Z,13.50
2023-05-14T04:44:15.248Z,14.60
2023-05-14T04:45:15.205Z,13.50
2023-05-14T04:46:15.229Z,14.50
2023-05-14T04:47:15.211Z,14.40
2023-05-14T04:48:15.175Z,14.80
2023-05-14T04:49:15.157Z,14.80
2023-05-14T04:50:15.153Z,15.50
2023-05-14T04:51:15.149Z,15.30
2023-05-14T04:52:15.139Z,14.50
2023-05-14T04:53:15.123Z,14.90
2023-05-14T04:54:15.158Z,14.70
2023-05-14T04:55:15.102Z,15.70
2023-05-14T04:56:15.215Z,14.30
2023-05-14T04:57:15.074Z,14.40
2023-05-14T04:58:15.112Z,14.70
2023-05-14T04:59:15.055Z,15.00
2023-05-14T05:00:15.087Z,16.40
2023-05-14T05:01:15.109Z,15.50
2023-05-14T05:02:15.128Z,17.00
2023-05-14T05:03:15.170Z,17.30
2023-05-14T05:04:15.157Z,17.10
2023-05-14T05:05:15.014Z,17.30
2023-05-14T05:06:15.002Z,16.90
2023-05-14T05:07:14.975Z,17.80
2023-05-14T05:08:15.017Z,18.00
2023-05-14T05:09:14.955Z,17.90
2023-05-14T05:10:15.096Z,17.70
2023-05-14T05:11:14.928Z,17.10
2023-05-14T05:12:14.923Z,17.70
2023-05-14T05:13:14.902Z,17.60
2023-05-14T05:14:14.942Z,18.30
2023-05-14T05:15:14.904Z,18.20
2023-05-14T05:16:14.977Z,17.50
2023-05-14T05:17:14.860Z,17.90
2023-05-14T05:18:14.857Z,17.50
2023-05-14T05:19:14.896Z,17.70
2023-05-14T05:20:14.861Z,16.80
2023-05-14T05:21:14.824Z,17.30
2023-05-14T05:22:14.818Z,17.90
2023-05-14T05:23:14.795Z,17.60
2023-05-14T05:24:14.861Z,17.00
2023-05-14T05:25:14.793Z,18.00
2023-05-14T05:26:14.777Z,17.20
2023-05-14T05:27:14.751Z,16.90
2023-05-14T05:28:14.751Z,17.50
2023-05-14T05:29:14.759Z,17.70
2023-05-14T05:30:14.738Z,17.90
2023-05-14T05:31:14.755Z,17.60
2023-05-14T05:32:14.732Z,17.70
2023-05-14T05:33:14.695Z,16.60
2023-05-14T05:34:14.821Z,16.50
2023-05-14T05:35:14.679Z,17.50
2023-05-14T05:36:14.682Z,18.20
2023-05-14T05:37:14.644Z,17.60
2023-05-14T05:38:14.653Z,17.20
2023-05-14T05:39:14.623Z,17.30
2023-05-14T05:40:14.621Z,17.70
2023-05-14T05:41:14.594Z,19.10
2023-05-14T05:42:14.714Z,18.70
2023-05-14T05:43:14.636Z,18.60
2023-05-14T05:44:14.578Z,19.00
2023-05-14T05:45:14.549Z,18.40
2023-05-14T05:46:14.553Z,18.20
2023-05-14T05:47:14.526Z,17.90
2023-05-14T05:48:14.577Z,17.60
2023-05-14T05:49:14.531Z,17.20
2023-05-14T05:50:14.502Z,17.10
2023-05-14T05:51:14.482Z,17.80
2023-05-14T05:52:14.518Z,17.20
2023-05-14T05:53:14.477Z,17.80
2023-05-14T05:54:14.472Z,17.20
2023-05-14T05:55:14.454Z,17.10
2023-05-14T05:56:14.519Z,17.80
2023-05-14T05:57:14.427Z,18.40
2023-05-14T05:58:14.416Z,17.40
2023-05-14T05:59:14.416Z,17.20
2023-05-14T06:00:14.421Z,17.50
2023-05-14T06:01:14.399Z,16.90
2023-05-14T06:02:14.454Z,16.80
2023-05-14T06:03:14.387Z,16.80
2023-05-14T06:04:14.389Z,17.00
2023-05-14T06:05:14.448Z,17.00
2023-05-14T06:06:14.439Z,17.10
2023-05-14T06:07:14.334Z,17.00
2023-05-14T06:08:14.321Z,18.10
2023-05-14T06:09:14.294Z,17.40
2023-05-14T06:10:14.311Z,16.70
2023-05-14T06:11:14.299Z,16.30
2023-05-14T06:12:14.272Z,16.10
2023-05-14T06:13:14.256Z,16.20
2023-05-14T06:14:14.371Z,16.60
2023-05-14T06:15:14.226Z,15.80
2023-05-14T06:16:14.453Z,15.80
2023-05-14T06:17:14.212Z,16.10
2023-05-14T06:18:14.208Z,14.90
2023-05-14T06:19:14.311Z,14.80
2023-05-14T06:20:14.195Z,14.70
2023-05-14T06:21:14.175Z,14.30
2023-05-14T06:22:14.251Z,14.40
2023-05-14T06:23:14.145Z,14.40
2023-05-14T06:24:14.210Z,13.90
2023-05-14T06:25:14.137Z,13.70
2023-05-14T06:26:14.155Z,13.70
2023-05-14T06:27:14.086Z,13.00
2023-05-14T06:28:14.099Z,12.90
2023-05-14T06:29:14.090Z,13.80
2023-05-14T06:30:14.111Z,14.10
2023-05-14T06:31:14.053Z,13.50
2023-05-14T06:32:14.127Z,13.30
2023-05-14T06:33:14.017Z,13.10
2023-05-14T06:34:14.028Z,12.80
2023-05-14T06:35:14.027Z,12.70
2023-05-14T06:36:13.990Z,12.70
2023-05-14T06:37:14.049Z,12.50
2023-05-14T06:38:13.994Z,12.40
2023-05-14T06:39:13.973Z,12.60
2023-05-14T06:40:14.095Z,12.10
2023-05-14T06:41:13.938Z,11.80
2023-05-14T06:42:13.948Z,12.00
2023-05-14T06:43:13.924Z,12.30
2023-05-14T06:44:13.949Z,11.60
2023-05-14T06:45:13.888Z,11.80
2023-05-14T06:46:13.908Z,11.20
2023-05-14T06:47:13.870Z,11.20
2023-05-14T06:48:13.915Z,12.50
2023-05-14T06:49:13.959Z,12.80
2023-05-14T06:50:13.839Z,12.00
2023-05-14T06:51:13.838Z,12.00
2023-05-14T06:52:13.848Z,12.00
2023-05-14T06:53:13.844Z,12.20
2023-05-14T06:54:13.855Z,12.50
2023-05-14T06:55:13.793Z,12.80
2023-05-14T06:56:13.805Z,12.50
2023-05-14T06:57:13.761Z,12.60
2023-05-14T06:58:13.760Z,11.40
2023-05-14T06:59:13.766Z,11.90
2023-05-14T07:00:13.732Z,11.50
2023-05-14T07:01:13.756Z,11.30
2023-05-14T07:02:13.710Z,11.10
2023-05-14T07:03:13.704Z,10.90
2023-05-14T07:04:13.723Z,10.90
2023-05-14T07:05:13.691Z,10.50
2023-05-14T07:06:13.751Z,10.90
2023-05-14T07:07:13.683Z,10.10
2023-05-14T07:08:13.673Z,10.40
2023-05-14T07:09:13.634Z,10.30
2023-05-14T07:10:13.698Z,10.50
2023-05-14T07:11:13.625Z,10.20
2023-05-14T07:12:13.641Z,10.10
2023-05-14T07:13:13.590Z,10.20
2023-05-14T07:14:13.568Z,10.20
2023-05-14T07:15:13.565Z,9.50
2023-05-14T07:16:13.553Z,10.00
2023-05-14T07:17:13.596Z,10.00
2023-05-14T07:18:13.607Z,9.90
2023-05-14T07:19:13.574Z,9.30
2023-05-14T07:20:13.535Z,9.80
2023-05-14T07:21:13.514Z,9.30
2023-05-14T07:22:13.510Z,10.30
2023-05-14T07:23:13.475Z,9.40
2023-05-14T07:24:13.468Z,9.30
2023-05-14T07:25:13.462Z,9.50
2023-05-14T07:26:13.641Z,9.70
2023-05-14T07:27:13.428Z,9.30
2023-05-14T07:28:13.486Z,10.10
2023-05-14T07:29:13.415Z,9.40
2023-05-14T07:30:13.477Z,9.10
2023-05-14T07:31:13.503Z,9.40
2023-05-14T07:32:15.485Z,9.50
2023-05-14T07:33:13.373Z,9.40
2023-05-14T07:34:13.356Z,10.30
2023-05-14T07:35:13.364Z,10.20
2023-05-14T07:36:13.497Z,9.90
2023-05-14T07:37:13.421Z,10.00
2023-05-14T07:38:13.313Z,9.80
2023-05-14T07:39:13.298Z,10.00
2023-05-14T07:40:13.605Z,9.70
2023-05-14T07:41:13.300Z,9.10
2023-05-14T07:42:21.908Z,9.70
2023-05-14T07:43:14.304Z,9.80
2023-05-14T07:44:13.330Z,9.90
2023-05-14T07:45:13.237Z,10.20
2023-05-14T07:46:13.263Z,9.70
2023-05-14T07:47:13.268Z,10.30
2023-05-14T07:48:13.264Z,10.10
2023-05-14T07:49:13.201Z,9.50
2023-05-14T07:50:13.213Z,9.60
2023-05-14T07:51:13.197Z,9.40
2023-05-14T07:52:13.188Z,10.00
2023-05-14T07:53:13.144Z,9.50
2023-05-14T07:54:13.181Z,9.70
2023-05-14T07:55:13.133Z,9.50
2023-05-14T07:56:13.128Z,9.50
2023-05-14T07:57:13.115Z,9.40
2023-05-14T07:58:13.107Z,8.80
2023-05-14T07:59:13.099Z,9.20
2023-05-14T08:00:13.081Z,9.40
2023-05-14T08:01:13.086Z,9.40
2023-05-14T08:02:13.177Z,8.50
2023-05-14T08:03:13.126Z,9.00
2023-05-14T08:04:13.166Z,9.30
2023-05-14T08:05:13.054Z,9.10
2023-05-14T08:06:13.093Z,8.70
2023-05-14T08:07:13.007Z,8.30
2023-05-14T08:08:13.017Z,8.70
2023-05-14T08:09:12.966Z,8.90
2023-05-14T08:10:13.021Z,9.00
2023-05-14T08:11:13.003Z,9.20
2023-05-14T08:12:12.964Z,8.80
2023-05-14T08:13:12.947Z,8.30
2023-05-14T08:14:13.077Z,8.20
2023-05-14T08:15:12.903Z,8.20
2023-05-14T08:16:12.919Z,7.20
2023-05-14T08:17:12.965Z,6.80
2023-05-14T08:18:12.951Z,6.50
2023-05-14T08:19:12.948Z,6.20
2023-05-14T08:20:13.104Z,6.20
2023-05-14T08:21:12.898Z,6.80
2023-05-14T08:22:13.162Z,6.70
2023-05-14T08:23:12.827Z,6.70
2023-05-14T08:24:12.854Z,6.70
2023-05-14T08:25:12.846Z,5.90
2023-05-14T08:26:12.817Z,5.70
2023-05-14T08:27:12.835Z,5.90
2023-05-14T08:28:12.842Z,5.90
2023-05-14T08:29:14.701Z,5.40
2023-05-14T08:30:12.774Z,5.60
2023-05-14T08:31:12.814Z,5.10
2023-05-14T08:32:22.927Z,5.20
2023-05-14T08:33:13.746Z,5.00
2023-05-14T08:34:12.763Z,5.00
2023-05-14T08:35:12.712Z,5.40
2023-05-14T08:36:12.777Z,5.10
2023-05-14T08:37:12.698Z,5.70
2023-05-14T08:38:12.684Z,6.20
2023-05-14T08:39:12.653Z,5.80
2023-05-14T08:40:13.154Z,4.80
2023-05-14T08:41:12.648Z,4.70
2023-05-14T08:42:12.659Z,4.70
2023-05-14T08:43:12.620Z,4.90
2023-05-14T08:44:12.665Z,4.20
2023-05-14T08:45:12.599Z,4.10
2023-05-14T08:46:12.620Z,3.70
2023-05-14T08:47:12.574Z,4.00
2023-05-14T08:48:12.666Z,4.00
2023-05-14T08:49:12.575Z,3.80
2023-05-14T08:50:12.579Z,3.60
2023-05-14T08:51:12.532Z,3.00
2023-05-14T08:52:12.654Z,4.00
2023-05-14T08:53:12.507Z,3.60
2023-05-14T08:54:12.537Z,3.60
2023-05-14T08:55:12.502Z,3.70
2023-05-14T08:56:12.531Z,3.60
2023-05-14T08:57:12.475Z,3.40
2023-05-14T08:58:12.552Z,3.60
2023-05-14T08:59:12.476Z,3.40
2023-05-14T09:00:12.474Z,3.60
2023-05-14T09:01:12.430Z,3.70
2023-05-14T09:02:12.588Z,3.70
2023-05-14T09:03:12.432Z,3.80
2023-05-14T09:04:12.573Z,3.60
2023-05-14T09:05:12.539Z,3.80
2023-05-14T09:06:12.427Z,3.80
2023-05-14T09:07:12.374Z,3.50
2023-05-14T09:08:13.104Z,3.60
2023-05-14T09:09:12.447Z,3.70
2023-05-14T09:10:12.390Z,3.70
2023-05-14T09:11:12.339Z,4.20
2023-05-14T09:12:12.352Z,4.10
2023-05-14T09:13:12.348Z,3.50
2023-05-14T09:14:12.373Z,3.90
2023-05-14T09:15:12.302Z,3.70
2023-05-14T09:16:12.372Z,3.90
2023-05-14T09:17:12.271Z,3.80
2023-05-14T09:18:12.524Z,3.40
2023-05-14T09:19:12.361Z,3.60
2023-05-14T09:20:12.242Z,3.50
2023-05-14T09:21:12.209Z,3.30
2023-05-14T09:22:12.225Z,3.20
2023-05-14T09:23:12.257Z,3.50
2023-05-14T09:24:12.204Z,3.20
2023-05-14T09:25:12.353Z,3.50
2023-05-14T09:26:12.176Z,3.00
2023-05-14T09:27:12.160Z,3.40
2023-05-14T09:28:12.175Z,3.90
2023-05-14T09:29:12.132Z,3.80
2023-05-14T09:30:12.132Z,3.10
2023-05-14T09:31:12.154Z,3.20
2023-05-14T09:32:12.118Z,2.90
2023-05-14T09:33:12.091Z,3.30
2023-05-14T09:34:12.123Z,3.10
2023-05-14T09:35:12.085Z,3.00
2023-05-14T09:36:12.139Z,3.30
2023-05-14T09:37:12.066Z,3.10
2023-05-14T09:38:12.091Z,3.40
2023-05-14T09:39:12.047Z,3.20
2023-05-14T09:40:12.025Z,3.20
2023-05-14T09:41:12.031Z,3.00
2023-05-14T09:42:12.108Z,3.20
2023-05-14T09:43:12.029Z,3.30
2023-05-14T09:44:12.046Z,3.10
2023-05-14T09:45:11.970Z,3.30
2023-05-14T09:46:12.311Z,3.20
2023-05-14T09:47:12.016Z,3.20
2023-05-14T09:48:12.085Z,3.10
2023-05-14T09:49:11.943Z,3.40
2023-05-14T09:50:12.070Z,3.40
2023-05-14T09:51:11.927Z,3.30
2023-05-14T09:52:12.026Z,3.70
2023-05-14T09:53:11.977Z,3.50
2023-05-14T09:54:11.915Z,3.10
2023-05-14T09:55:11.893Z,3.30
2023-05-14T09:56:11.893Z,2.70
2023-05-14T09:57:11.851Z,3.00
2023-05-14T09:58:12.014Z,3.40
2023-05-14T09:59:11.853Z,2.70
2023-05-14T10:00:11.895Z,2.80
2023-05-14T10:01:11.876Z,3.30
2023-05-14T10:02:11.859Z,3.00
2023-05-14T10:03:11.834Z,3.20
2023-05-14T10:04:11.924Z,3.10
2023-05-14T10:05:11.785Z,3.00
2023-05-14T10:06:11.828Z,2.90
2023-05-14T10:07:11.760Z,3.00
2023-05-14T10:08:11.756Z,2.90
2023-05-14T10:09:11.746Z,3.00
2023-05-14T10:10:11.725Z,2.80
2023-05-14T10:11:11.731Z,2.90
2023-05-14T10:12:11.790Z,2.90
2023-05-14T10:13:11.698Z,2.80
2023-05-14T10:14:11.754Z,2.90
2023-05-14T10:15:11.667Z,2.80
2023-05-14T10:16:11.669Z,3.00
2023-05-14T10:17:11.839Z,3.00
2023-05-14T10:18:11.885Z,3.30
2023-05-14T10:19:11.742Z,3.00
2023-05-14T10:20:11.632Z,3.00
2023-05-14T10:21:11.668Z,2.90
2023-05-14T10:22:11.634Z,3.00
2023-05-14T10:23:11.739Z,2.80
2023-05-14T10:24:11.581Z,3.00
2023-05-14T10:25:11.575Z,2.90
2023-05-14T10:26:11.683Z,3.00
2023-05-14T10:27:11.557Z,2.80
2023-05-14T10:28:11.557Z,2.80
2023-05-14T10:29:11.550Z,2.70
2023-05-14T10:30:11.592Z,3.10
2023-05-14T10:31:11.585Z,2.80
2023-05-14T10:32:11.574Z,3.40
2023-05-14T10:33:11.610Z,2.90
2023-05-14T10:34:11.534Z,3.60
2023-05-14T10:35:11.496Z,3.20
2023-05-14T10:36:11.497Z,2.90
2023-05-14T10:37:11.483Z,3.20
2023-05-14T10:38:11.462Z,3.00
2023-05-14T10:39:11.489Z,2.80
2023-05-14T10:40:11.560Z,2.50
2023-05-14T10:41:11.460Z,2.80
2023-05-14T10:42:11.493Z,2.70
2023-05-14T10:43:11.414Z,2.60
2023-05-14T10:44:11.467Z,2.70
2023-05-14T10:45:11.378Z,2.50
2023-05-14T10:46:11.467Z,3.00
2023-05-14T10:47:11.684Z,2.60
2023-05-14T10:48:11.526Z,2.60
2023-05-14T10:49:11.344Z,2.70
2023-05-14T10:50:11.387Z,2.60
2023-05-14T10:51:11.367Z,2.60
2023-05-14T10:52:11.310Z,2.30
2023-05-14T10:53:11.302Z,2.70
2023-05-14T10:54:11.343Z,2.50
2023-05-14T10:55:11.286Z,2.70
2023-05-14T10:56:11.306Z,2.40
2023-05-14T10:57:11.273Z,2.40
2023-05-14T10:58:11.303Z,2.30
2023-05-14T10:59:11.245Z,2.40
2023-05-14T11:00:11.255Z,2.10
2023-05-14T11:01:11.246Z,2.20
2023-05-14T11:02:11.272Z,2.50
2023-05-14T11:03:11.223Z,2.50
2023-05-14T11:04:11.298Z,2.50
2023-05-14T11:05:11.217Z,2.60
2023-05-14T11:06:11.207Z,2.50
2023-05-14T11:07:11.182Z,2.20
2023-05-14T11:08:11.183Z,2.40
2023-05-14T11:09:11.155Z,2.20
2023-05-14T11:10:11.146Z,2.60
2023-05-14T11:11:11.138Z,2.70
2023-05-14T11:12:11.143Z,2.90
2023-05-14T11:13:11.150Z,2.50
2023-05-14T11:14:11.102Z,2.60
2023-05-14T11:15:11.175Z,2.70
2023-05-14T11:16:22.638Z,2.70
2023-05-14T11:17:12.287Z,2.40
2023-05-14T11:18:11.086Z,2.60
2023-05-14T11:19:11.242Z,2.50
2023-05-14T11:20:11.144Z,2.90
2023-05-14T11:21:11.085Z,2.50
2023-05-14T11:22:11.031Z,2.40
2023-05-14T11:23:11.013Z,2.30
2023-05-14T11:24:11.069Z,3.10
2023-05-14T11:25:11.012Z,2.70
2023-05-14T11:26:11.027Z,2.80
2023-05-14T11:27:10.977Z,2.40
2023-05-14T11:28:10.951Z,2.80
2023-05-14T11:29:11.019Z,2.70
2023-05-14T11:30:11.035Z,2.70
2023-05-14T11:31:10.974Z,2.70
2023-05-14T11:32:11.066Z,2.60
2023-05-14T11:33:10.950Z,2.80
2023-05-14T11:34:10.949Z,2.70
2023-05-14T11:35:10.891Z,2.60
2023-05-14T11:36:10.866Z,2.50
2023-05-14T11:37:10.868Z,2.70
2023-05-14T11:38:10.907Z,2.80
2023-05-14T11:39:10.838Z,2.90
2023-05-14T11:40:10.890Z,2.70
2023-05-14T11:41:10.834Z,2.80
2023-05-14T11:42:10.816Z,2.90
2023-05-14T11:43:10.824Z,2.70
2023-05-14T11:44:10.869Z,2.90
2023-05-14T11:45:10.771Z,3.00
2023-05-14T11:46:10.860Z,2.80
2023-05-14T11:47:10.865Z,2.90
2023-05-14T11:48:10.830Z,2.80
2023-05-14T11:49:10.736Z,2.90
2023-05-14T11:50:10.754Z,2.60
2023-05-14T11:51:10.704Z,2.70
2023-05-14T11:52:10.812Z,2.40
2023-05-14T11:53:10.698Z,3.00
2023-05-14T11:54:10.670Z,2.60
2023-05-14T11:55:10.759Z,2.90
2023-05-14T11:56:10.733Z,2.90
2023-05-14T11:57:10.652Z,2.60
2023-05-14T11:58:10.762Z,3.20
2023-05-14T11:59:10.670Z,4.00
2023-05-14T12:00:10.621Z,3.80
2023-05-14T12:01:10.614Z,4.60
2023-05-14T12:02:10.743Z,3.20
2023-05-14T12:03:10.730Z,3.50
2023-05-14T12:04:10.674Z,2.80
2023-05-14T12:05:10.574Z,2.80
2023-05-14T12:06:10.623Z,2.60
2023-05-14T12:07:10.526Z,3.00
2023-05-14T12:08:10.536Z,2.50
2023-05-14T12:09:10.512Z,2.90
2023-05-14T12:10:10.587Z,2.80
2023-05-14T12:11:10.537Z,2.60
2023-05-14T12:12:10.600Z,2.80
2023-05-14T12:13:10.465Z,2.90
2023-05-14T12:14:10.496Z,2.70
2023-05-14T12:15:10.476Z,2.40
2023-05-14T12:16:10.457Z,3.10
2023-05-14T12:17:10.419Z,3.00
2023-05-14T12:18:22.931Z,3.30
2023-05-14T12:19:11.442Z,2.70
2023-05-14T12:20:10.407Z,3.10
2023-05-14T12:21:10.384Z,3.40
2023-05-14T12:22:10.793Z,3.20
2023-05-14T12:23:10.363Z,3.50
2023-05-14T12:24:10.437Z,3.30
2023-05-14T12:25:10.471Z,3.60
2023-05-14T12:26:10.380Z,2.80
2023-05-14T12:27:10.341Z,3.00
2023-05-14T12:28:10.635Z,3.40
2023-05-14T12:29:10.356Z,3.40
2023-05-14T12:30:20.637Z,3.30
2023-05-14T12:31:11.275Z,3.70
2023-05-14T12:32:10.370Z,3.40
2023-05-14T12:33:10.424Z,3.70
2023-05-14T12:34:10.284Z,3.10
2023-05-14T12:35:10.247Z,2.90
2023-05-14T12:36:21.154Z,2.90
2023-05-14T12:37:11.212Z,2.90
2023-05-14T12:38:10.236Z,3.60
2023-05-14T12:39:10.208Z,3.30
2023-05-14T12:40:10.263Z,3.30
2023-05-14T12:41:10.188Z,3.00
2023-05-14T12:42:10.195Z,2.90
2023-05-14T12:43:10.168Z,3.30
2023-05-14T12:44:10.200Z,3.60
2023-05-14T12:45:10.147Z,3.70
2023-05-14T12:46:10.170Z,3.10
2023-05-14T12:47:10.183Z,3.40
2023-05-14T12:48:10.367Z,3.60
2023-05-14T12:49:10.107Z,3.10
2023-05-14T12:50:10.154Z,3.60
2023-05-14T12:51:10.103Z,3.40
2023-05-14T12:52:25.752Z,3.90
2023-05-14T12:53:11.076Z,3.70
2023-05-14T12:54:10.105Z,3.80
2023-05-14T12:55:10.118Z,3.50
2023-05-14T12:56:10.097Z,3.90
2023-05-14T12:57:10.033Z,4.00
2023-05-14T12:58:10.013Z,4.00
2023-05-14T12:59:10.000Z,4.40
2023-05-14T13:00:11.551Z,4.10
2023-05-14T13:01:10.017Z,4.20
2023-05-14T13:02:10.023Z,4.00
2023-05-14T13:03:09.975Z,4.00